createdAt,value
2019-02-10T00:02:01.686Z,0.18
2019-02-10T00:04:31.145Z,0.29
2019-02-10T00:07:00.518Z,0.25
2019-02-10T00:09:29.935Z,0.32
2019-02-10T00:11:59.292Z,-0.95
2019-02-10T00:14:28.722Z,0.02
2019-02-10T00:16:58.133Z,-0.02
2019-02-10T00:19:27.491Z,0.03
2019-02-10T00:21:56.821Z,0.14
2019-02-10T00:24:26.223Z,0.13
2019-02-10T00:26:55.684Z,0.03
2019-02-10T00:29:25.047Z,-0.05
2019-02-10T00:31:54.523Z,-0.04
2019-02-10T00:34:23.935Z,-0.29
2019-02-10T00:36:53.414Z,-0.24
2019-02-10T00:39:22.834Z,-0.17
2019-02-10T00:41:52.223Z,-0.11
2019-02-10T00:44:21.690Z,-0.09
2019-02-10T00:46:50.995Z,-0.04
2019-02-10T00:49:20.380Z,0.04
2019-02-10T00:51:49.775Z,0.06
2019-02-10T00:54:19.177Z,-0.12
2019-02-10T00:56:48.580Z,-0.12
2019-02-10T00:59:18.026Z,-0.18
2019-02-10T01:01:47.506Z,-0.08
2019-02-10T01:04:16.878Z,-0.03
2019-02-10T01:06:46.265Z,-0.02
2019-02-10T01:09:15.855Z,-0.03
2019-02-10T01:11:45.220Z,0.07
2019-02-10T01:14:14.604Z,0.07
2019-02-10T01:16:43.975Z,0.04
2019-02-10T01:19:13.547Z,0.10
2019-02-10T01:21:44.619Z,0.09
2019-02-10T01:24:13.983Z,0.11
2019-02-10T01:26:43.537Z,-0.03
2019-02-10T01:29:12.926Z,-0.04
2019-02-10T01:31:42.329Z,-0.02
2019-02-10T01:34:11.742Z,0.03
2019-02-10T01:36:49.176Z,0.07
2019-02-10T01:39:17.788Z,0.13
2019-02-10T01:41:47.231Z,0.23
2019-02-10T01:44:16.564Z,0.17
2019-02-10T01:46:45.963Z,0.11
2019-02-10T01:49:15.403Z,-0.03
2019-02-10T01:51:44.807Z,-0.08
2019-02-10T01:54:14.210Z,-0.09
2019-02-10T01:56:43.622Z,-0.37
2019-02-10T01:59:13.144Z,-0.50
2019-02-10T02:01:42.500Z,-0.43
2019-02-10T02:04:11.968Z,-0.40
2019-02-10T02:06:41.373Z,-0.55
2019-02-10T02:09:12.851Z,-0.61
2019-02-10T02:11:42.371Z,-0.56
2019-02-10T02:14:11.794Z,-0.79
2019-02-10T02:16:41.133Z,-1.10
2019-02-10T02:19:10.597Z,-1.18
2019-02-10T02:21:40.043Z,-1.24
2019-02-10T02:24:09.450Z,-1.28
2019-02-10T02:26:38.904Z,-1.32
2019-02-10T02:29:08.348Z,-1.32
2019-02-10T02:31:37.751Z,-1.30
2019-02-10T02:34:07.152Z,-1.43
2019-02-10T02:36:42.374Z,-1.34
2019-02-10T02:39:11.860Z,-1.24
2019-02-10T02:41:41.194Z,-1.17
2019-02-10T02:44:10.668Z,-1.17
2019-02-10T02:46:40.100Z,-1.11
2019-02-10T02:49:09.455Z,-1.25
2019-02-10T02:51:38.925Z,-1.25
2019-02-10T02:54:08.659Z,-1.20
2019-02-10T02:56:38.086Z,-1.21
2019-02-10T02:59:07.426Z,-1.25
2019-02-10T03:01:36.795Z,-1.24
2019-02-10T03:04:06.173Z,-1.32
2019-02-10T03:06:47.961Z,-1.10
2019-02-10T03:09:17.519Z,-1.04
2019-02-10T03:11:47.126Z,-1.04
2019-02-10T03:14:16.575Z,-1.18
2019-02-10T03:16:45.997Z,-1.14
2019-02-10T03:19:15.463Z,-1.27
2019-02-10T03:21:44.963Z,-1.37
2019-02-10T03:24:14.462Z,-1.49
2019-02-10T03:26:43.830Z,-1.52
2019-02-10T03:29:13.205Z,-1.43
2019-02-10T03:31:42.653Z,-1.40
2019-02-10T03:34:12.055Z,-1.37
2019-02-10T03:36:41.447Z,-1.27
2019-02-10T03:39:10.830Z,-1.17
2019-02-10T03:41:40.289Z,-1.11
2019-02-10T03:44:09.645Z,-0.98
2019-02-10T03:46:39.028Z,-1.01
2019-02-10T03:49:08.467Z,-1.18
2019-02-10T03:51:37.798Z,-1.10
2019-02-10T03:54:07.287Z,-0.91
2019-02-10T03:56:36.591Z,-0.86
2019-02-10T03:59:05.996Z,-0.97
2019-02-10T04:01:35.364Z,-0.98
2019-02-10T04:04:04.744Z,-1.03
2019-02-10T04:06:34.162Z,-1.07
2019-02-10T04:09:04.865Z,-1.00
2019-02-10T04:11:34.283Z,-0.94
2019-02-10T04:14:03.729Z,-0.99
2019-02-10T04:16:33.079Z,-0.84
2019-02-10T04:19:02.464Z,-0.86
2019-02-10T04:21:31.883Z,-0.97
2019-02-10T04:24:01.480Z,-1.12
2019-02-10T04:26:30.846Z,-1.10
2019-02-10T04:29:00.266Z,-1.17
2019-02-10T04:31:29.692Z,-1.15
2019-02-10T04:33:59.038Z,-1.21
2019-02-10T04:36:28.436Z,-1.18
2019-02-10T04:38:57.869Z,-1.13
2019-02-10T04:41:27.226Z,-1.17
2019-02-10T04:43:56.625Z,-1.21
2019-02-10T04:46:26.047Z,-1.38
2019-02-10T04:48:55.399Z,-1.25
2019-02-10T04:51:24.741Z,-1.23
2019-02-10T04:53:54.089Z,-1.45
2019-02-10T04:56:23.459Z,-1.54
2019-02-10T04:58:52.869Z,-1.70
2019-02-10T05:01:22.262Z,-1.76
2019-02-10T05:03:52.751Z,-1.70
2019-02-10T05:06:22.172Z,-1.73
2019-02-10T05:08:51.584Z,-1.64
2019-02-10T05:11:20.927Z,-1.79
2019-02-10T05:13:50.333Z,-1.84
2019-02-10T05:16:19.733Z,-1.75
2019-02-10T05:18:49.070Z,-1.78
2019-02-10T05:21:18.436Z,-1.83
2019-02-10T05:23:47.826Z,-1.68
2019-02-10T05:26:17.196Z,-1.62
2019-02-10T05:28:46.554Z,-1.70
2019-02-10T05:31:15.967Z,-1.74
2019-02-10T05:33:45.378Z,-1.61
2019-02-10T05:36:14.736Z,-1.44
2019-02-10T05:38:44.147Z,-1.44
2019-02-10T05:41:13.490Z,-1.41
2019-02-10T05:43:42.870Z,-1.41
2019-02-10T05:46:12.322Z,-1.28
2019-02-10T05:48:41.717Z,-1.10
2019-02-10T05:51:11.166Z,-0.90
2019-02-10T05:53:40.592Z,-0.72
2019-02-10T05:56:10.085Z,-0.69
2019-02-10T05:58:39.447Z,-0.56
2019-02-10T06:01:44.677Z,-0.42
2019-02-10T06:04:14.184Z,-0.02
2019-02-10T06:06:43.555Z,-0.37
2019-02-10T06:09:13.010Z,-0.17
2019-02-10T06:11:42.423Z,0.40
2019-02-10T06:14:11.799Z,0.96
2019-02-10T06:16:41.236Z,1.05
2019-02-10T06:19:10.618Z,1.33
2019-02-10T06:21:40.141Z,1.33
2019-02-10T06:24:09.587Z,1.45
2019-02-10T06:26:38.988Z,1.03
2019-02-10T06:29:08.488Z,2.36
2019-02-10T06:31:37.819Z,2.36
2019-02-10T06:34:07.274Z,2.10
2019-02-10T06:36:36.614Z,1.80
2019-02-10T06:39:07.030Z,2.03
2019-02-10T06:41:36.399Z,2.58
2019-02-10T06:44:05.735Z,2.93
2019-02-10T06:46:35.163Z,3.09
2019-02-10T06:49:04.525Z,3.19
2019-02-10T06:51:33.949Z,3.17
2019-02-10T06:54:03.343Z,2.65
2019-02-10T06:56:33.105Z,2.79
2019-02-10T06:59:02.484Z,3.07
2019-02-10T07:01:45.359Z,3.60
2019-02-10T07:04:22.343Z,4.12
2019-02-10T07:06:51.779Z,3.88
2019-02-10T07:09:22.830Z,3.77
2019-02-10T07:11:52.285Z,4.02
2019-02-10T07:14:25.271Z,4.21
2019-02-10T07:17:15.884Z,4.29
2019-02-10T07:20:31.047Z,4.79
2019-02-10T07:23:35.570Z,5.18
2019-02-10T07:26:21.948Z,5.56
2019-02-10T07:29:24.782Z,5.76
2019-02-10T07:32:20.172Z,6.28
2019-02-10T07:35:45.735Z,6.35
2019-02-10T07:38:40.814Z,6.46
2019-02-10T07:42:12.224Z,6.78
2019-02-10T07:45:18.190Z,6.74
2019-02-10T07:48:34.227Z,6.67
2019-02-10T07:51:46.270Z,7.07
2019-02-10T07:55:05.649Z,7.60
2019-02-10T07:58:24.769Z,7.77
2019-02-10T08:01:29.270Z,7.94
2019-02-10T08:04:32.820Z,7.79
2019-02-10T08:07:35.784Z,7.81
2019-02-10T08:10:34.704Z,8.24
2019-02-10T08:13:19.197Z,8.29
2019-02-10T08:16:32.712Z,8.47
2019-02-10T08:19:33.094Z,8.47
2019-02-10T08:22:40.529Z,8.57
2019-02-10T08:26:02.856Z,8.44
2019-02-10T08:29:06.655Z,8.45
2019-02-10T08:32:42.624Z,8.66
2019-02-10T08:35:36.193Z,8.70
2019-02-10T08:38:30.047Z,9.23
2019-02-10T08:41:40.359Z,9.36
2019-02-10T08:44:49.205Z,9.14
2019-02-10T08:47:41.159Z,8.87
2019-02-10T08:50:59.215Z,8.90
2019-02-10T08:53:38.005Z,8.83
2019-02-10T08:56:07.431Z,9.34
2019-02-10T08:58:36.805Z,9.40
2019-02-10T09:01:06.209Z,9.78
2019-02-10T09:03:35.714Z,10.08
2019-02-10T09:06:05.062Z,10.34
2019-02-10T09:08:34.465Z,9.85
2019-02-10T09:11:03.960Z,10.04
2019-02-10T09:13:33.309Z,10.48
2019-02-10T09:16:02.786Z,10.68
2019-02-10T09:18:32.536Z,10.07
2019-02-10T09:21:02.001Z,9.76
2019-02-10T09:23:31.439Z,9.95
2019-02-10T09:26:01.162Z,9.94
2019-02-10T09:28:30.600Z,9.84
2019-02-10T09:30:59.956Z,10.00
2019-02-10T09:33:29.422Z,10.24
2019-02-10T09:35:58.896Z,10.78
2019-02-10T09:38:28.421Z,10.93
2019-02-10T09:40:57.975Z,10.66
2019-02-10T09:43:27.315Z,10.66
2019-02-10T09:45:57.155Z,10.74
2019-02-10T09:48:26.872Z,10.99
2019-02-10T09:50:56.243Z,11.47
2019-02-10T09:53:25.635Z,11.69
2019-02-10T09:55:55.007Z,11.42
2019-02-10T09:58:24.342Z,11.53
2019-02-10T10:00:53.715Z,11.23
2019-02-10T10:03:23.103Z,11.29
2019-02-10T10:05:52.547Z,11.60
2019-02-10T10:08:21.956Z,11.86
2019-02-10T10:10:51.367Z,11.92
2019-02-10T10:13:20.795Z,12.23
2019-02-10T10:15:50.237Z,12.32
2019-02-10T10:18:19.755Z,12.41
2019-02-10T10:20:49.451Z,12.71
2019-02-10T10:23:18.870Z,13.02
2019-02-10T10:25:49.141Z,13.12
2019-02-10T10:28:18.462Z,13.01
2019-02-10T10:30:47.897Z,13.22
2019-02-10T10:33:18.330Z,13.09
2019-02-10T10:35:47.722Z,13.46
2019-02-10T10:38:17.155Z,13.36
2019-02-10T10:40:46.667Z,13.48
2019-02-10T10:43:15.990Z,13.35
2019-02-10T10:45:45.370Z,12.97
2019-02-10T10:48:14.749Z,13.32
2019-02-10T10:50:44.063Z,13.57
2019-02-10T10:53:13.459Z,13.94
2019-02-10T10:55:43.765Z,14.14
2019-02-10T10:58:13.115Z,14.06
2019-02-10T11:00:42.922Z,14.21
2019-02-10T11:03:12.291Z,14.54
2019-02-10T11:05:42.253Z,14.99
2019-02-10T11:08:11.654Z,14.96
2019-02-10T11:10:41.110Z,14.82
2019-02-10T11:13:10.514Z,14.97
2019-02-10T11:15:39.930Z,14.87
2019-02-10T11:18:09.250Z,14.75
2019-02-10T11:20:39.003Z,15.07
2019-02-10T11:23:08.407Z,15.33
2019-02-10T11:25:37.798Z,15.15
2019-02-10T11:28:07.276Z,14.86
2019-02-10T11:30:36.623Z,15.19
2019-02-10T11:33:06.111Z,15.34
2019-02-10T11:35:35.518Z,15.10
2019-02-10T11:38:04.925Z,15.11
2019-02-10T11:40:34.359Z,13.95
2019-02-10T11:43:03.703Z,15.21
2019-02-10T11:45:33.169Z,15.11
2019-02-10T11:48:02.575Z,15.35
2019-02-10T11:50:31.964Z,14.97
2019-02-10T11:53:01.387Z,15.43
2019-02-10T11:55:30.834Z,15.07
2019-02-10T11:58:01.152Z,14.64
2019-02-10T12:00:30.523Z,15.12
2019-02-10T12:02:59.913Z,15.44
2019-02-10T12:05:29.315Z,15.60
2019-02-10T12:07:58.647Z,15.36
2019-02-10T12:10:28.097Z,15.33
2019-02-10T12:12:57.431Z,15.58
2019-02-10T12:15:27.282Z,15.34
2019-02-10T12:17:57.035Z,14.94
2019-02-10T12:20:26.442Z,14.66
2019-02-10T12:22:55.821Z,14.77
2019-02-10T12:25:25.163Z,14.77
2019-02-10T12:27:54.545Z,15.12
2019-02-10T12:30:23.917Z,15.02
2019-02-10T12:32:53.365Z,14.80
2019-02-10T12:35:22.773Z,14.96
2019-02-10T12:37:52.176Z,15.28
2019-02-10T12:40:21.552Z,15.36
2019-02-10T12:42:50.898Z,15.46
2019-02-10T12:45:20.269Z,15.46
2019-02-10T12:47:49.682Z,15.17
2019-02-10T12:50:19.095Z,15.47
2019-02-10T12:52:48.471Z,15.43
2019-02-10T12:55:17.857Z,14.93
2019-02-10T12:57:47.491Z,14.85
2019-02-10T13:00:17.336Z,15.11
2019-02-10T13:02:47.471Z,15.10
2019-02-10T13:05:16.853Z,14.84
2019-02-10T13:07:46.702Z,14.65
2019-02-10T13:10:18.206Z,14.35
2019-02-10T13:12:47.345Z,14.40
2019-02-10T13:15:16.704Z,13.44
2019-02-10T13:17:46.186Z,14.44
2019-02-10T13:20:16.188Z,14.32
2019-02-10T13:22:45.574Z,14.54
2019-02-10T13:25:15.085Z,14.57
2019-02-10T13:27:44.383Z,14.65
2019-02-10T13:30:14.087Z,14.79
2019-02-10T13:32:43.435Z,14.67
2019-02-10T13:35:12.945Z,14.80
2019-02-10T13:37:42.296Z,14.64
2019-02-10T13:40:17.163Z,14.68
2019-02-10T13:42:46.661Z,14.65
2019-02-10T13:45:16.019Z,14.39
2019-02-10T13:47:45.430Z,14.34
2019-02-10T13:50:15.519Z,14.37
2019-02-10T13:52:44.885Z,14.43
2019-02-10T13:55:14.320Z,14.47
2019-02-10T13:57:43.766Z,14.38
2019-02-10T14:00:15.518Z,14.50
2019-02-10T14:02:44.973Z,14.37
2019-02-10T14:05:14.359Z,14.31
2019-02-10T14:07:45.677Z,14.05
2019-02-10T14:10:15.168Z,13.93
2019-02-10T14:12:44.652Z,13.95
2019-02-10T14:15:14.475Z,13.94
2019-02-10T14:17:44.153Z,13.93
2019-02-10T14:20:15.583Z,13.78
2019-02-10T14:22:44.936Z,13.68
2019-02-10T14:25:14.394Z,13.66
2019-02-10T14:27:44.330Z,13.68
2019-02-10T14:30:16.982Z,13.25
2019-02-10T14:32:46.295Z,13.54
2019-02-10T14:35:15.694Z,13.60
2019-02-10T14:37:45.165Z,13.45
2019-02-10T14:40:14.712Z,13.32
2019-02-10T14:42:44.118Z,13.25
2019-02-10T14:45:13.658Z,13.24
2019-02-10T14:47:43.060Z,13.17
2019-02-10T14:50:13.955Z,13.15
2019-02-10T14:52:43.302Z,13.10
2019-02-10T14:55:13.021Z,13.07
2019-02-10T14:57:42.432Z,13.14
2019-02-10T15:00:13.000Z,13.11
2019-02-10T15:02:42.467Z,13.02
2019-02-10T15:05:12.303Z,12.93
2019-02-10T15:07:41.695Z,12.87
2019-02-10T15:10:12.328Z,12.83
2019-02-10T15:12:41.699Z,12.76
2019-02-10T15:15:11.483Z,12.70
2019-02-10T15:17:40.936Z,12.55
2019-02-10T15:20:10.428Z,12.55
2019-02-10T15:22:40.200Z,12.52
2019-02-10T15:25:09.775Z,12.36
2019-02-10T15:27:39.209Z,12.14
2019-02-10T15:30:10.075Z,11.98
2019-02-10T15:32:39.502Z,11.85
2019-02-10T15:35:09.073Z,11.79
2019-02-10T15:37:38.442Z,11.80
2019-02-10T15:40:08.268Z,11.91
2019-02-10T15:42:37.706Z,11.98
2019-02-10T15:45:07.991Z,12.00
2019-02-10T15:47:37.416Z,11.73
2019-02-10T15:50:07.223Z,11.56
2019-02-10T15:52:36.602Z,11.41
2019-02-10T15:55:06.475Z,11.41
2019-02-10T15:57:35.913Z,11.38
2019-02-10T16:00:07.122Z,11.33
2019-02-10T16:02:36.689Z,11.42
2019-02-10T16:05:06.518Z,11.58
2019-02-10T16:07:36.012Z,11.72
2019-02-10T16:10:06.217Z,11.69
2019-02-10T16:12:35.651Z,11.43
2019-02-10T16:15:05.242Z,11.16
2019-02-10T16:17:34.604Z,11.09
2019-02-10T16:20:04.165Z,10.89
2019-02-10T16:22:33.594Z,10.82
2019-02-10T16:25:03.024Z,10.81
2019-02-10T16:27:32.477Z,10.71
2019-02-10T16:30:01.852Z,10.47
2019-02-10T16:32:31.261Z,10.33
2019-02-10T16:35:00.646Z,10.38
2019-02-10T16:37:30.024Z,10.62
2019-02-10T16:39:59.369Z,10.73
2019-02-10T16:42:28.744Z,10.64
2019-02-10T16:44:58.147Z,10.60
2019-02-10T16:47:27.586Z,10.37
2019-02-10T16:49:56.978Z,10.32
2019-02-10T16:52:26.426Z,10.37
2019-02-10T16:54:57.628Z,10.60
2019-02-10T16:57:27.095Z,10.67
2019-02-10T17:00:00.806Z,10.66
2019-02-10T17:02:30.207Z,10.68
2019-02-10T17:04:59.625Z,10.80
2019-02-10T17:07:29.050Z,10.89
2019-02-10T17:10:01.612Z,10.85
2019-02-10T17:12:33.002Z,10.78
2019-02-10T17:15:02.191Z,10.66
2019-02-10T17:17:31.622Z,10.52
2019-02-10T17:20:01.079Z,10.68
2019-02-10T17:22:31.358Z,10.72
2019-02-10T17:25:01.039Z,10.66
2019-02-10T17:27:30.434Z,10.45
2019-02-10T17:29:59.913Z,10.14
2019-02-10T17:32:29.273Z,9.96
2019-02-10T17:35:00.670Z,9.91
2019-02-10T17:37:30.110Z,10.14
2019-02-10T17:39:59.821Z,9.80
2019-02-10T17:42:31.012Z,9.44
2019-02-10T17:45:01.725Z,9.41
2019-02-10T17:47:31.425Z,9.31
2019-02-10T17:50:00.809Z,9.30
2019-02-10T17:52:32.072Z,9.19
2019-02-10T17:55:01.337Z,9.18
2019-02-10T17:57:33.491Z,9.11
2019-02-10T18:00:06.485Z,8.96
2019-02-10T18:02:36.115Z,8.58
2019-02-10T18:05:05.612Z,8.01
2019-02-10T18:07:38.384Z,7.87
2019-02-10T18:10:08.698Z,7.75
2019-02-10T18:12:38.144Z,7.56
2019-02-10T18:15:25.743Z,7.44
2019-02-10T18:18:29.368Z,7.33
2019-02-10T18:21:20.605Z,7.18
2019-02-10T18:24:07.613Z,7.10
2019-02-10T18:26:57.555Z,7.08
2019-02-10T18:29:48.957Z,6.93
2019-02-10T18:32:43.365Z,6.81
2019-02-10T18:35:31.226Z,6.78
2019-02-10T18:38:11.490Z,6.68
2019-02-10T18:40:59.837Z,6.59
2019-02-10T18:43:49.521Z,6.46
2019-02-10T18:46:26.143Z,6.34
2019-02-10T18:49:13.590Z,6.43
2019-02-10T18:52:00.824Z,6.53
2019-02-10T18:54:55.230Z,6.47
2019-02-10T18:57:34.667Z,6.39
2019-02-10T19:00:32.793Z,6.40
2019-02-10T19:03:24.233Z,6.42
2019-02-10T19:06:12.523Z,6.50
2019-02-10T19:09:03.915Z,6.59
2019-02-10T19:11:49.498Z,6.60
2019-02-10T19:14:44.272Z,6.63
2019-02-10T19:17:20.144Z,6.56
2019-02-10T19:20:09.229Z,6.55
2019-02-10T19:22:56.536Z,6.39
2019-02-10T19:25:34.600Z,6.37
2019-02-10T19:28:21.617Z,6.35
2019-02-10T19:31:05.230Z,6.38
2019-02-10T19:33:45.113Z,6.48
2019-02-10T19:36:39.541Z,6.56
2019-02-10T19:39:26.855Z,6.52
2019-02-10T19:42:14.198Z,6.49
2019-02-10T19:45:11.408Z,6.53
2019-02-10T19:48:17.945Z,6.56
2019-02-10T19:51:12.960Z,6.63
2019-02-10T19:53:53.394Z,6.62
2019-02-10T19:56:48.312Z,6.47
2019-02-10T19:59:45.481Z,6.35
2019-02-10T20:02:36.577Z,6.35
2019-02-10T20:05:31.489Z,6.01
2019-02-10T20:08:32.262Z,6.07
2019-02-10T20:11:17.898Z,5.97
2019-02-10T20:13:56.895Z,5.93
2019-02-10T20:17:03.743Z,5.85
2019-02-10T20:19:38.999Z,5.80
2019-02-10T20:22:16.293Z,5.78
2019-02-10T20:25:08.171Z,5.78
2019-02-10T20:28:11.587Z,5.89
2019-02-10T20:31:09.291Z,5.92
2019-02-10T20:33:56.155Z,5.97
2019-02-10T20:36:42.549Z,6.00
2019-02-10T20:39:29.191Z,6.07
2019-02-10T20:42:20.344Z,6.12
2019-02-10T20:45:04.311Z,6.07
2019-02-10T20:47:55.685Z,6.03
2019-02-10T20:50:56.109Z,5.92
2019-02-10T20:53:56.457Z,5.70
2019-02-10T20:56:50.648Z,5.56
2019-02-10T20:59:32.176Z,5.55
2019-02-10T21:02:32.457Z,5.55
2019-02-10T21:05:09.943Z,4.38
2019-02-10T21:07:52.522Z,5.39
2019-02-10T21:10:33.002Z,5.38
2019-02-10T21:13:21.343Z,5.44
2019-02-10T21:16:09.658Z,5.44
2019-02-10T21:18:59.906Z,5.48
2019-02-10T21:21:45.057Z,5.51
2019-02-10T21:24:33.348Z,5.51
2019-02-10T21:27:10.932Z,5.44
2019-02-10T21:30:08.385Z,5.35
2019-02-10T21:32:54.178Z,5.32
2019-02-10T21:35:39.373Z,5.25
2019-02-10T21:38:33.883Z,5.19
2019-02-10T21:41:24.574Z,5.19
2019-02-10T21:44:02.618Z,5.19
2019-02-10T21:47:00.203Z,5.15
2019-02-10T21:49:30.595Z,5.06
2019-02-10T21:52:20.493Z,4.92
2019-02-10T21:54:50.024Z,4.92
2019-02-10T21:57:19.436Z,4.93
2019-02-10T21:59:48.940Z,4.85
2019-02-10T22:02:18.335Z,4.85
2019-02-10T22:04:47.721Z,4.74
2019-02-10T22:07:17.173Z,4.62
2019-02-10T22:09:46.606Z,4.52
2019-02-10T22:12:16.059Z,4.48
2019-02-10T22:14:45.453Z,4.51
2019-02-10T22:17:14.848Z,4.50
2019-02-10T22:19:44.326Z,4.50
2019-02-10T22:22:13.811Z,4.47
2019-02-10T22:24:43.259Z,4.25
2019-02-10T22:27:12.618Z,4.21
2019-02-10T22:29:41.971Z,4.27
2019-02-10T22:32:11.399Z,4.35
2019-02-10T22:34:40.761Z,4.27
2019-02-10T22:37:10.152Z,4.29
2019-02-10T22:39:39.560Z,4.33
2019-02-10T22:42:09.006Z,4.38
2019-02-10T22:44:38.457Z,4.45
2019-02-10T22:47:07.891Z,4.31
2019-02-10T22:49:37.751Z,4.29
2019-02-10T22:52:07.130Z,4.32
2019-02-10T22:54:36.629Z,4.36
2019-02-10T22:57:06.097Z,4.29
2019-02-10T22:59:35.453Z,4.17
2019-02-10T23:02:04.938Z,4.25
2019-02-10T23:04:34.352Z,4.30
2019-02-10T23:07:03.831Z,4.26
2019-02-10T23:09:33.304Z,4.35
2019-02-10T23:12:02.757Z,4.24
2019-02-10T23:14:32.220Z,4.25
2019-02-10T23:17:01.586Z,4.20
2019-02-10T23:19:30.983Z,4.22
2019-02-10T23:22:00.364Z,4.32
2019-02-10T23:24:29.786Z,4.33
2019-02-10T23:26:59.196Z,4.39
2019-02-10T23:29:28.580Z,4.46
2019-02-10T23:32:00.497Z,4.41
2019-02-10T23:34:32.690Z,4.50
2019-02-10T23:37:02.202Z,4.41
2019-02-10T23:39:31.621Z,4.57
2019-02-10T23:42:01.060Z,4.54
2019-02-10T23:44:30.562Z,4.59
2019-02-10T23:46:59.945Z,4.58
2019-02-10T23:49:29.396Z,4.51
2019-02-10T23:51:58.802Z,4.58
2019-02-10T23:54:28.211Z,4.54
2019-02-10T23:56:58.181Z,4.39
2019-02-10T23:59:27.539Z,4.43
